Time;durP1;ratioP1;P1;durP2;ratioP2;P2;SDS_P1;SDS_P2;PMS_P1;PMS_P2;Temp;Humidity;BMP_temperature;BMP_pressure;BME280_temperature;BME280_humidity;BME280_pressure;Samples;Min_cycle;Max_cycle;Signal;HPM_P1;HPM_P2
2023/01/30 00:00:54;;;;;;;24.70;16.35;;;3.70;99.90;;;;;;5056500;28;20426;-70
2023/01/30 00:03:21;;;;;;;24.77;16.77;;;3.70;99.90;;;;;;5052058;28;20424;-70
2023/01/30 00:05:48;;;;;;;25.53;17.40;;;3.70;99.90;;;;;;5052645;28;20504;-70
2023/01/30 00:08:15;;;;;;;24.60;16.80;;;3.70;99.90;;;;;;5052311;28;20417;-68
2023/01/30 00:10:43;;;;;;;23.95;16.17;;;3.80;99.90;;;;;;5052530;28;20900;-71
2023/01/30 00:13:11;;;;;;;24.95;16.70;;;3.80;99.90;;;;;;5052435;28;20510;-70
2023/01/30 00:15:38;;;;;;;24.10;17.10;;;3.80;99.90;;;;;;5052304;28;20429;-71
2023/01/30 00:18:05;;;;;;;22.98;16.13;;;3.80;99.90;;;;;;5052454;28;20436;-69
2023/01/30 00:20:31;;;;;;;23.87;16.87;;;3.80;99.90;;;;;;5052323;28;20504;-70
2023/01/30 00:22:58;;;;;;;24.67;16.25;;;3.90;99.90;;;;;;5052513;28;20419;-68
2023/01/30 00:25:25;;;;;;;24.75;16.98;;;3.90;99.90;;;;;;5052191;28;20420;-70
2023/01/30 00:27:53;;;;;;;23.50;16.40;;;3.90;99.90;;;;;;5056024;28;20421;-70
2023/01/30 00:30:20;;;;;;;23.63;17.35;;;3.90;99.90;;;;;;5056427;28;20412;-70
2023/01/30 00:32:47;;;;;;;23.25;16.48;;;3.90;99.90;;;;;;5056021;28;20792;-69
2023/01/30 00:35:14;;;;;;;23.53;16.47;;;3.90;99.90;;;;;;5055745;28;20439;-70
2023/01/30 00:37:41;;;;;;;23.52;16.52;;;3.90;99.90;;;;;;5055861;28;20424;-71
2023/01/30 00:40:09;;;;;;;26.20;17.08;;;3.90;99.90;;;;;;5056086;28;20427;-69
2023/01/30 00:48:06;;;;;;;26.20;18.40;;;4.00;99.90;;;;;;5055802;28;20474;-69
2023/01/30 00:50:42;;;;;;;27.05;18.52;;;4.00;99.90;;;;;;5056586;28;20488;-68
2023/01/30 00:53:10;;;;;;;25.48;18.15;;;3.90;99.90;;;;;;5056062;28;20413;-70
2023/01/30 00:55:36;;;;;;;29.08;19.08;;;3.90;99.90;;;;;;5055589;28;20429;-68
2023/01/30 00:58:04;;;;;;;28.77;19.20;;;3.90;99.90;;;;;;5055356;28;20409;-68
2023/01/30 01:00:32;;;;;;;29.17;19.50;;;3.90;99.90;;;;;;5055374;28;20419;-70
2023/01/30 01:02:59;;;;;;;27.45;19.60;;;3.90;99.90;;;;;;5055183;28;20413;-68
2023/01/30 01:05:26;;;;;;;28.60;19.95;;;3.90;99.90;;;;;;5055223;28;20424;-68
2023/01/30 01:07:54;;;;;;;30.98;20.25;;;3.80;99.90;;;;;;5055322;28;20421;-68
2023/01/30 01:10:21;;;;;;;31.70;20.52;;;3.80;99.90;;;;;;5055131;28;20409;-69
2023/01/30 01:12:51;;;;;;;31.77;20.88;;;3.70;99.90;;;;;;5055441;28;20417;-68
2023/01/30 01:15:18;;;;;;;33.40;21.73;;;3.70;99.90;;;;;;5055155;28;20420;-69
2023/01/30 01:17:47;;;;;;;31.67;20.30;;;3.70;99.90;;;;;;5055226;28;20504;-69
2023/01/30 01:20:14;;;;;;;31.63;20.83;;;3.60;99.90;;;;;;5055103;28;20462;-69
2023/01/30 01:22:40;;;;;;;32.70;21.67;;;3.70;99.90;;;;;;5054541;28;20432;-69
2023/01/30 01:25:08;;;;;;;34.17;22.85;;;3.60;99.90;;;;;;5054780;28;20431;-70
2023/01/30 01:27:35;;;;;;;33.20;22.17;;;3.70;99.90;;;;;;5054661;28;20423;-70
2023/01/30 01:30:02;;;;;;;30.42;21.50;;;3.70;99.90;;;;;;5054926;28;20413;-70
2023/01/30 01:32:29;;;;;;;33.10;22.80;;;3.70;99.90;;;;;;5054645;28;20425;-70
2023/01/30 01:34:57;;;;;;;34.53;22.13;;;3.60;99.90;;;;;;5054549;28;20421;-69
2023/01/30 01:37:24;;;;;;;35.22;22.30;;;3.60;99.90;;;;;;5053863;28;20425;-70
2023/01/30 01:42:37;;;;;;;35.55;22.98;;;3.60;99.90;;;;;;5054679;28;20397;-70
2023/01/30 01:45:15;;;;;;;35.35;21.83;;;3.60;99.90;;;;;;5054247;28;20414;-70
2023/01/30 01:47:45;;;;;;;34.67;21.92;;;3.60;99.90;;;;;;5054172;28;20777;-70
2023/01/30 01:50:18;;;;;;;30.92;21.40;;;3.60;99.90;;;;;;5054498;28;20409;-70
2023/01/30 01:52:46;;;;;;;30.30;21.23;;;3.60;99.90;;;;;;5054434;28;20417;-69
2023/01/30 01:55:13;;;;;;;32.53;20.67;;;3.60;99.90;;;;;;5053937;28;20797;-70
2023/01/30 01:57:44;;;;;;;29.60;19.17;;;3.60;99.90;;;;;;5053907;28;20937;-69
2023/01/30 02:00:15;;;;;;;26.75;18.45;;;3.60;99.90;;;;;;5054001;28;20903;-69
2023/01/30 02:02:44;;;;;;;26.17;17.48;;;3.70;99.90;;;;;;5054919;28;20401;-69
2023/01/30 02:05:15;;;;;;;24.50;16.83;;;3.70;99.90;;;;;;5054113;28;20406;-69
2023/01/30 02:07:47;;;;;;;27.30;17.40;;;3.80;99.90;;;;;;5054030;28;20410;-70
2023/01/30 02:10:18;;;;;;;23.98;17.25;;;3.80;99.90;;;;;;5054018;28;20413;-70
2023/01/30 02:12:47;;;;;;;26.00;17.50;;;3.90;99.90;;;;;;5053929;28;20417;-69
2023/01/30 02:15:14;;;;;;;25.92;17.92;;;3.90;99.90;;;;;;5054152;28;20420;-69
2023/01/30 02:17:41;;;;;;;25.85;16.75;;;4.00;99.90;;;;;;5053623;28;20437;-70
2023/01/30 02:20:18;;;;;;;26.40;17.42;;;4.00;99.90;;;;;;5053808;28;20409;-70
2023/01/30 02:23:12;;;;;;;23.45;17.38;;;4.10;99.90;;;;;;5053800;28;20413;-70
2023/01/30 02:26:03;;;;;;;26.17;18.52;;;4.10;99.90;;;;;;5050596;28;20425;-70
2023/01/30 02:29:01;;;;;;;27.08;18.80;;;4.20;99.90;;;;;;5053505;28;20413;-69
2023/01/30 02:31:37;;;;;;;27.10;18.40;;;4.20;99.90;;;;;;5053598;28;20416;-70
2023/01/30 02:34:17;;;;;;;27.95;18.40;;;4.20;99.90;;;;;;5053300;28;20416;-70
2023/01/30 02:36:54;;;;;;;27.30;19.58;;;4.30;99.90;;;;;;5053385;28;20429;-71
2023/01/30 02:39:32;;;;;;;27.30;19.50;;;4.30;99.90;;;;;;5054166;28;20417;-71
2023/01/30 02:42:04;;;;;;;27.88;18.80;;;4.30;99.90;;;;;;5052887;28;20413;-70
2023/01/30 02:44:42;;;;;;;29.73;20.13;;;4.30;99.90;;;;;;5053199;28;20450;-70
2023/01/30 02:47:14;;;;;;;28.40;20.45;;;4.30;99.90;;;;;;5053480;28;20432;-70
2023/01/30 02:49:45;;;;;;;30.13;20.15;;;4.30;99.90;;;;;;5051983;28;20401;-70
2023/01/30 02:52:13;;;;;;;28.83;19.83;;;4.30;99.90;;;;;;5053020;28;20413;-70
2023/01/30 02:54:40;;;;;;;28.48;19.98;;;4.40;99.90;;;;;;5052894;28;20416;-71
2023/01/30 02:57:19;;;;;;;26.30;18.70;;;4.40;99.90;;;;;;5052789;28;20429;-70
2023/01/30 02:59:49;;;;;;;26.83;18.70;;;4.40;99.90;;;;;;5052512;28;20876;-70
2023/01/30 03:02:49;;;;;;;26.17;18.40;;;4.40;99.90;;;;;;5052670;28;20409;-70
2023/01/30 03:05:36;;;;;;;29.70;20.20;;;4.50;99.90;;;;;;5052672;28;20469;-70
2023/01/30 03:08:14;;;;;;;26.73;18.58;;;4.50;99.90;;;;;;5052457;28;20893;-70
2023/01/30 03:10:46;;;;;;;27.97;19.30;;;4.60;99.90;;;;;;5052880;28;20507;-70
2023/01/30 03:13:19;;;;;;;26.88;17.98;;;4.60;99.90;;;;;;5052500;28;20447;-71
2023/01/30 03:15:50;;;;;;;27.02;19.20;;;4.60;99.90;;;;;;5052257;28;20413;-70
2023/01/30 03:18:20;;;;;;;29.30;19.15;;;4.70;99.90;;;;;;5052333;28;20413;-69
2023/01/30 03:20:47;;;;;;;27.15;19.20;;;4.70;99.90;;;;;;5052583;28;20413;-69
2023/01/30 03:23:14;;;;;;;29.10;19.73;;;4.70;99.90;;;;;;5052654;28;20416;-69
2023/01/30 03:25:43;;;;;;;28.80;20.83;;;4.70;99.90;;;;;;5052092;28;20424;-70
2023/01/30 03:28:10;;;;;;;31.87;21.13;;;4.70;99.90;;;;;;5052260;28;20490;-70
2023/01/30 03:30:37;;;;;;;31.63;21.73;;;4.70;99.90;;;;;;5052295;28;20416;-70
2023/01/30 03:33:04;;;;;;;33.33;21.95;;;4.60;99.90;;;;;;5052368;28;20409;-69
2023/01/30 03:35:32;;;;;;;28.83;20.50;;;4.60;99.90;;;;;;5053279;28;20413;-69
2023/01/30 03:37:59;;;;;;;37.70;22.42;;;4.50;99.90;;;;;;5052180;28;20454;-69
2023/01/30 03:40:26;;;;;;;36.00;22.63;;;4.50;99.90;;;;;;5052281;28;20413;-68
2023/01/30 03:42:53;;;;;;;32.50;22.00;;;4.50;99.90;;;;;;5052027;28;20845;-63
2023/01/30 03:45:20;;;;;;;36.83;22.80;;;4.40;99.90;;;;;;5052013;28;20480;-65
2023/01/30 03:47:46;;;;;;;35.22;22.95;;;4.40;99.90;;;;;;5051839;28;20409;-64
2023/01/30 03:50:13;;;;;;;35.40;23.00;;;4.40;99.90;;;;;;5052149;28;20413;-63
2023/01/30 03:52:41;;;;;;;33.95;21.15;;;4.40;99.90;;;;;;5051911;28;20409;-64
2023/01/30 03:55:09;;;;;;;33.40;21.52;;;4.40;99.90;;;;;;5052080;28;20418;-65
2023/01/30 03:57:36;;;;;;;31.85;21.58;;;4.40;99.90;;;;;;5052079;28;20421;-64
2023/01/30 04:00:04;;;;;;;31.92;21.15;;;4.40;99.90;;;;;;5052398;28;20750;-64
2023/01/30 04:02:30;;;;;;;32.08;20.45;;;4.50;99.90;;;;;;5051677;28;20413;-64
2023/01/30 04:04:57;;;;;;;30.67;20.38;;;4.50;99.90;;;;;;5052702;28;20417;-63
2023/01/30 04:07:24;;;;;;;29.53;19.17;;;4.50;99.90;;;;;;5051761;28;20501;-64
2023/01/30 04:11:06;;;;;;;31.35;19.55;;;4.50;99.90;;;;;;5089933;28;20351;-64
2023/01/30 04:13:33;;;;;;;29.20;18.93;;;4.60;99.90;;;;;;5089318;28;20858;-64
2023/01/30 04:16:18;;;;;;;27.38;19.30;;;4.60;99.90;;;;;;5089566;28;20418;-63
2023/01/30 04:18:45;;;;;;;29.73;19.85;;;4.60;99.90;;;;;;5089304;28;20411;-63
2023/01/30 04:23:40;;;;;;;26.20;18.95;;;4.60;99.90;;;;;;5111328;22;20435;-60
2023/01/30 04:26:09;;;;;;;29.23;18.40;;;4.60;99.90;;;;;;5089397;28;20411;-62
2023/01/30 04:28:36;;;;;;;27.38;18.35;;;4.60;99.90;;;;;;5089136;28;20411;-61
2023/01/30 04:31:04;;;;;;;24.85;17.30;;;4.60;99.90;;;;;;5089547;28;20426;-61
2023/01/30 04:33:34;;;;;;;23.98;16.27;;;4.70;99.90;;;;;;5089275;28;20415;-61
2023/01/30 04:36:01;;;;;;;19.85;12.93;;;4.60;99.90;;;;;;5089764;28;20450;-60
2023/01/30 04:38:30;;;;;;;18.33;13.85;;;4.60;99.90;;;;;;5089608;28;20414;-61
2023/01/30 04:40:58;;;;;;;20.33;13.93;;;4.70;99.90;;;;;;5094252;28;20415;-62
2023/01/30 04:43:27;;;;;;;19.10;13.38;;;4.70;99.90;;;;;;5094436;28;20759;-61
2023/01/30 04:45:55;;;;;;;22.42;15.40;;;4.70;99.90;;;;;;5093286;28;20433;-61
2023/01/30 04:48:23;;;;;;;17.08;13.48;;;4.70;99.90;;;;;;5093580;28;20410;-61
2023/01/30 04:50:52;;;;;;;18.27;13.70;;;4.70;99.90;;;;;;5095545;28;20907;-61
2023/01/30 04:53:19;;;;;;;16.93;12.20;;;4.70;99.90;;;;;;5098075;28;20411;-60
2023/01/30 04:55:47;;;;;;;16.52;12.63;;;4.70;99.90;;;;;;5099062;28;20411;-62
2023/01/30 04:58:14;;;;;;;17.83;12.40;;;4.70;99.90;;;;;;5094989;28;20417;-61
2023/01/30 05:00:42;;;;;;;16.90;11.95;;;4.80;99.90;;;;;;5093578;28;20407;-61
2023/01/30 05:03:09;;;;;;;17.33;12.00;;;4.80;99.90;;;;;;5100855;28;20419;-61
2023/01/30 05:05:36;;;;;;;16.45;12.27;;;4.80;99.90;;;;;;5097854;28;20415;-61
2023/01/30 05:08:03;;;;;;;16.27;11.75;;;4.80;99.90;;;;;;5095751;28;20415;-62
2023/01/30 05:10:30;;;;;;;17.90;12.27;;;4.90;99.90;;;;;;5091400;28;20434;-61
2023/01/30 05:13:01;;;;;;;13.48;11.18;;;4.90;99.90;;;;;;5091712;28;20430;-62
2023/01/30 05:15:28;;;;;;;16.10;12.18;;;4.90;99.90;;;;;;5092278;28;20415;-60
2023/01/30 05:17:56;;;;;;;15.93;10.95;;;4.90;99.90;;;;;;5091584;28;20433;-61
2023/01/30 05:20:23;;;;;;;13.30;9.70;;;4.90;99.90;;;;;;5088839;28;20411;-61
2023/01/30 05:22:50;;;;;;;14.13;10.00;;;5.00;99.90;;;;;;5078876;28;20419;-62
2023/01/30 05:25:17;;;;;;;13.20;10.70;;;5.00;99.90;;;;;;5080561;28;20461;-63
2023/01/30 05:27:44;;;;;;;13.75;10.60;;;5.00;99.90;;;;;;5079382;28;20415;-62
2023/01/30 05:30:11;;;;;;;13.07;10.13;;;5.10;99.90;;;;;;5079937;28;20427;-62
2023/01/30 05:32:38;;;;;;;11.02;8.93;;;5.10;99.90;;;;;;5079765;28;20415;-61
2023/01/30 05:35:07;;;;;;;11.98;9.50;;;5.10;99.90;;;;;;5080007;28;20415;-62
2023/01/30 05:37:36;;;;;;;13.55;9.48;;;5.20;99.90;;;;;;5081640;28;20411;-62
2023/01/30 05:40:04;;;;;;;11.75;8.52;;;5.20;99.90;;;;;;5083752;28;20415;-62
2023/01/30 05:42:31;;;;;;;11.55;8.20;;;5.20;99.90;;;;;;5082558;28;20494;-62
2023/01/30 05:44:58;;;;;;;11.90;8.80;;;5.30;99.90;;;;;;5079156;28;20427;-62
2023/01/30 05:47:25;;;;;;;13.25;9.48;;;5.20;99.90;;;;;;5081131;28;20506;-62
2023/01/30 05:49:52;;;;;;;11.23;8.82;;;5.30;99.90;;;;;;5078246;28;20510;-62
2023/01/30 05:52:20;;;;;;;10.55;8.18;;;5.20;99.90;;;;;;5065365;28;20504;-61
2023/01/30 05:54:46;;;;;;;10.48;7.78;;;5.20;99.90;;;;;;5078279;28;20432;-62
2023/01/30 05:57:13;;;;;;;9.02;7.38;;;5.20;99.90;;;;;;5080655;28;20438;-61
2023/01/30 05:59:40;;;;;;;9.70;7.50;;;5.30;99.90;;;;;;5071563;28;20425;-64
2023/01/30 06:02:07;;;;;;;10.68;7.93;;;5.30;99.90;;;;;;5087901;28;20519;-61
2023/01/30 06:04:34;;;;;;;12.15;8.65;;;5.30;99.90;;;;;;5077770;28;20522;-61
2023/01/30 06:07:01;;;;;;;9.97;8.20;;;5.30;99.90;;;;;;5084194;28;20946;-61
2023/01/30 06:09:29;;;;;;;13.55;9.10;;;5.30;99.90;;;;;;5084300;28;20539;-63
2023/01/30 06:11:56;;;;;;;12.57;8.63;;;5.20;99.90;;;;;;5086663;28;20926;-60
2023/01/30 06:14:23;;;;;;;12.30;7.40;;;5.20;99.90;;;;;;5073525;28;20459;-64
2023/01/30 06:16:50;;;;;;;12.90;7.75;;;5.30;99.90;;;;;;5090444;28;20408;-61
2023/01/30 06:19:17;;;;;;;9.63;6.60;;;5.20;99.90;;;;;;5088069;28;20433;-69
2023/01/30 06:21:43;;;;;;;9.80;6.72;;;5.20;99.90;;;;;;5089703;28;20487;-62
2023/01/30 06:24:10;;;;;;;8.85;6.45;;;5.20;99.90;;;;;;5089171;28;20444;-61
2023/01/30 06:26:38;;;;;;;9.57;6.10;;;5.20;99.90;;;;;;5089397;28;20500;-61
2023/01/30 06:29:05;;;;;;;9.10;6.68;;;5.20;99.90;;;;;;5089365;28;20447;-62
2023/01/30 06:31:32;;;;;;;8.77;6.80;;;5.20;99.90;;;;;;5085230;28;20466;-62
2023/01/30 06:33:59;;;;;;;11.70;6.85;;;5.30;99.90;;;;;;5075147;28;20508;-61
2023/01/30 06:36:26;;;;;;;9.88;6.40;;;5.30;99.90;;;;;;5061045;28;20786;-62
2023/01/30 06:38:52;;;;;;;11.20;7.38;;;5.30;99.90;;;;;;5074293;28;20807;-61
2023/01/30 06:41:19;;;;;;;9.48;6.78;;;5.40;99.90;;;;;;5073538;28;20514;-62
2023/01/30 06:43:48;;;;;;;10.68;7.40;;;5.50;99.90;;;;;;5080660;28;20431;-61
2023/01/30 06:46:14;;;;;;;11.90;7.60;;;5.50;99.90;;;;;;5065672;28;20472;-61
2023/01/30 06:48:41;;;;;;;11.40;7.85;;;5.60;99.90;;;;;;5075988;28;20428;-62
2023/01/30 06:51:08;;;;;;;10.40;7.30;;;5.60;99.90;;;;;;5071085;28;20429;-62
2023/01/30 06:53:35;;;;;;;9.85;7.35;;;5.60;99.90;;;;;;5058468;28;20465;-61
2023/01/30 06:56:02;;;;;;;10.82;6.85;;;5.60;99.90;;;;;;5074619;28;20910;-61
2023/01/30 06:58:29;;;;;;;10.77;6.90;;;5.60;99.90;;;;;;5067998;28;20427;-61
2023/01/30 07:00:57;;;;;;;9.43;6.40;;;5.60;99.90;;;;;;5071440;28;20428;-65
2023/01/30 07:03:24;;;;;;;8.57;5.45;;;5.50;99.90;;;;;;5070893;28;20880;-60
2023/01/30 07:05:51;;;;;;;10.82;5.38;;;5.50;99.90;;;;;;5075285;28;20426;-60
2023/01/30 07:08:18;;;;;;;9.30;5.40;;;5.50;99.90;;;;;;5074115;28;20411;-61
2023/01/30 07:10:45;;;;;;;14.40;6.20;;;5.50;99.90;;;;;;5072362;28;20509;-61
2023/01/30 07:13:12;;;;;;;9.60;5.60;;;5.50;99.90;;;;;;5066957;28;20417;-61
2023/01/30 07:15:39;;;;;;;10.70;5.87;;;5.50;99.90;;;;;;5071802;28;20517;-61
2023/01/30 07:18:07;;;;;;;11.10;5.03;;;5.50;99.90;;;;;;5077978;28;20430;-62
2023/01/30 07:20:34;;;;;;;9.60;4.70;;;5.60;99.90;;;;;;5075517;28;20406;-60
2023/01/30 07:23:01;;;;;;;10.63;4.20;;;5.60;99.90;;;;;;5075881;28;20431;-60
2023/01/30 07:25:29;;;;;;;8.30;3.90;;;5.60;99.90;;;;;;5083253;28;20460;-62
2023/01/30 07:27:58;;;;;;;10.82;3.40;;;5.50;99.90;;;;;;5080909;28;20443;-60
2023/01/30 07:30:25;;;;;;;10.40;3.30;;;5.50;99.90;;;;;;5078173;28;20509;-59
2023/01/30 07:32:53;;;;;;;7.10;3.15;;;5.40;99.90;;;;;;5078108;28;20431;-61
2023/01/30 07:35:21;;;;;;;10.40;3.47;;;5.40;99.90;;;;;;5080418;28;20806;-61
2023/01/30 07:37:50;;;;;;;9.48;2.95;;;5.50;99.90;;;;;;5081865;28;20450;-59
2023/01/30 07:40:18;;;;;;;10.07;3.45;;;5.50;99.90;;;;;;5074015;28;20428;-60
2023/01/30 07:42:56;;;;;;;13.85;3.13;;;5.50;99.90;;;;;;5073326;28;20429;-62
2023/01/30 07:45:23;;;;;;;12.23;3.25;;;5.50;99.90;;;;;;5074919;28;20421;-62
2023/01/30 07:47:49;;;;;;;10.60;3.10;;;5.50;99.90;;;;;;5079745;28;20489;-62
2023/01/30 07:50:17;;;;;;;11.10;3.10;;;5.60;99.90;;;;;;5080523;28;20478;-62
2023/01/30 07:52:45;;;;;;;9.05;2.60;;;5.60;99.90;;;;;;5080208;28;20412;-62
2023/01/30 07:55:12;;;;;;;8.80;2.60;;;5.60;99.90;;;;;;5081062;28;20506;-62
2023/01/30 07:57:39;;;;;;;6.43;2.70;;;5.60;99.90;;;;;;5076172;28;20918;-62
2023/01/30 08:00:09;;;;;;;10.10;3.00;;;5.60;99.90;;;;;;5076390;28;20498;-62
2023/01/30 08:02:36;;;;;;;9.80;2.67;;;5.60;99.90;;;;;;5078855;28;20447;-62
2023/01/30 08:05:03;;;;;;;9.00;3.00;;;5.60;99.90;;;;;;5077741;28;20899;-62
2023/01/30 08:07:30;;;;;;;8.90;2.70;;;5.70;99.90;;;;;;5073133;28;20426;-61
2023/01/30 08:09:58;;;;;;;8.30;2.50;;;5.80;99.90;;;;;;5072332;28;20753;-62
2023/01/30 08:12:25;;;;;;;8.30;2.60;;;5.90;99.90;;;;;;5072322;28;20416;-60
2023/01/30 08:14:51;;;;;;;14.02;3.10;;;6.00;99.90;;;;;;5072687;28;20798;-61
2023/01/30 08:17:18;;;;;;;12.77;3.13;;;6.20;99.90;;;;;;5074271;28;20498;-62
2023/01/30 08:19:45;;;;;;;11.68;3.45;;;6.20;99.90;;;;;;5073576;28;20418;-62
2023/01/30 08:22:12;;;;;;;8.60;2.25;;;6.30;99.90;;;;;;5074101;28;20415;-62
2023/01/30 08:24:39;;;;;;;9.57;2.90;;;6.20;99.90;;;;;;5075263;28;20418;-61
2023/01/30 08:27:08;;;;;;;7.93;3.00;;;6.20;99.90;;;;;;5077664;28;20462;-62
2023/01/30 08:29:35;;;;;;;9.57;2.60;;;6.20;99.90;;;;;;5080326;28;20400;-61
2023/01/30 08:32:01;;;;;;;11.38;3.50;;;6.20;99.90;;;;;;5077192;28;20435;-62
2023/01/30 08:34:28;;;;;;;12.82;3.58;;;6.10;99.90;;;;;;5082457;28;20438;-61
2023/01/30 08:36:55;;;;;;;9.80;2.90;;;6.10;99.90;;;;;;5075691;28;20412;-61
2023/01/30 08:39:22;;;;;;;9.65;2.60;;;6.20;99.90;;;;;;5075096;28;20545;-62
2023/01/30 08:41:49;;;;;;;9.70;2.55;;;6.10;99.90;;;;;;5076234;28;20773;-61
2023/01/30 08:44:17;;;;;;;10.40;2.70;;;6.20;99.90;;;;;;5076755;28;20417;-62
2023/01/30 08:46:44;;;;;;;10.57;3.00;;;6.20;99.90;;;;;;5074680;28;20411;-61
2023/01/30 08:49:10;;;;;;;13.23;3.08;;;6.30;99.90;;;;;;5077241;28;20852;-62
2023/01/30 08:51:38;;;;;;;10.45;2.90;;;6.30;99.90;;;;;;5078430;28;20428;-62
2023/01/30 08:54:06;;;;;;;13.63;3.78;;;6.30;99.90;;;;;;5078781;28;20411;-61
2023/01/30 08:56:33;;;;;;;11.70;3.42;;;6.30;99.90;;;;;;5078729;28;20810;-62
2023/01/30 08:59:00;;;;;;;7.20;2.88;;;6.30;99.90;;;;;;5078166;28;20407;-62
2023/01/30 09:01:28;;;;;;;9.75;2.90;;;6.30;99.90;;;;;;5078097;28;20412;-62
2023/01/30 09:03:55;;;;;;;11.68;3.17;;;6.30;99.90;;;;;;5078654;28;20498;-62
2023/01/30 09:06:21;;;;;;;12.55;3.03;;;6.30;99.90;;;;;;5087093;28;20418;-61
2023/01/30 09:08:48;;;;;;;10.70;2.80;;;6.40;99.90;;;;;;5091992;28;20482;-63
2023/01/30 09:11:15;;;;;;;11.93;3.13;;;6.40;99.90;;;;;;5090890;28;20472;-62
2023/01/30 09:13:43;;;;;;;15.32;3.42;;;6.50;99.90;;;;;;5078217;28;20461;-62
2023/01/30 09:16:10;;;;;;;12.43;3.50;;;6.50;99.90;;;;;;5076606;28;20427;-62
2023/01/30 09:18:40;;;;;;;12.38;2.90;;;6.60;99.90;;;;;;5075857;28;20426;-60
2023/01/30 09:21:07;;;;;;;8.15;2.60;;;6.60;99.90;;;;;;5076417;28;20411;-62
2023/01/30 09:23:34;;;;;;;13.98;3.10;;;6.70;99.90;;;;;;5075685;28;20412;-61
2023/01/30 09:26:01;;;;;;;10.80;2.80;;;6.70;99.90;;;;;;5075600;28;20418;-62
2023/01/30 09:28:28;;;;;;;13.27;2.90;;;6.60;99.90;;;;;;5075070;28;20411;-61
2023/01/30 09:30:57;;;;;;;9.52;2.90;;;6.60;99.90;;;;;;5075046;28;20450;-63
2023/01/30 09:33:23;;;;;;;10.60;2.40;;;6.60;99.90;;;;;;5074351;28;20495;-61
2023/01/30 09:35:52;;;;;;;9.43;2.90;;;6.60;99.90;;;;;;5074966;28;20412;-60
2023/01/30 09:38:20;;;;;;;14.93;2.80;;;6.60;99.90;;;;;;5074493;28;20415;-63
2023/01/30 09:40:59;;;;;;;13.52;3.55;;;6.60;99.90;;;;;;5074315;28;20412;-61
2023/01/30 09:43:39;;;;;;;14.00;3.50;;;6.70;99.90;;;;;;5074392;28;20430;-61
2023/01/30 09:46:16;;;;;;;12.98;3.05;;;6.80;99.90;;;;;;5074636;28;20416;-61
2023/01/30 09:48:54;;;;;;;12.02;2.95;;;6.80;99.90;;;;;;5074591;28;20415;-62
2023/01/30 09:51:42;;;;;;;11.60;3.50;;;6.90;99.90;;;;;;5074640;28;20430;-62
2023/01/30 09:54:23;;;;;;;12.95;3.20;;;6.90;99.90;;;;;;5074981;28;20429;-61
2023/01/30 09:56:55;;;;;;;13.70;2.70;;;6.90;99.90;;;;;;5074446;28;20555;-62
2023/01/30 09:59:32;;;;;;;13.73;2.90;;;6.90;99.90;;;;;;5074683;28;20426;-61
2023/01/30 10:02:10;;;;;;;8.07;2.65;;;6.90;99.90;;;;;;5074893;28;20411;-61
2023/01/30 10:04:41;;;;;;;11.38;3.25;;;6.90;99.90;;;;;;5073993;28;20420;-61
2023/01/30 10:07:20;;;;;;;13.20;3.58;;;6.90;99.90;;;;;;5074345;28;20839;-60
2023/01/30 10:09:55;;;;;;;8.30;2.60;;;6.80;99.90;;;;;;5073940;28;20416;-61
2023/01/30 10:12:34;;;;;;;9.68;2.55;;;6.80;99.90;;;;;;5074975;28;20427;-61
2023/01/30 10:15:15;;;;;;;12.82;2.90;;;6.90;99.90;;;;;;5074755;28;20416;-62
2023/01/30 10:17:53;;;;;;;11.00;2.70;;;7.00;99.90;;;;;;5076388;28;20450;-62
2023/01/30 10:20:31;;;;;;;12.80;3.30;;;7.00;99.90;;;;;;5076525;28;20859;-62
2023/01/30 10:23:25;;;;;;;11.40;3.17;;;7.10;99.90;;;;;;5116983;22;20948;-62
2023/01/30 10:25:55;;;;;;;11.48;2.95;;;7.20;99.90;;;;;;5094825;28;20501;-60
2023/01/30 10:28:26;;;;;;;10.60;3.50;;;7.30;99.90;;;;;;5094509;28;20413;-62
2023/01/30 10:30:56;;;;;;;11.43;2.80;;;7.30;99.90;;;;;;5094860;28;20420;-62
2023/01/30 10:33:28;;;;;;;11.75;2.50;;;7.30;99.90;;;;;;5094986;28;20900;-61
2023/01/30 10:36:01;;;;;;;14.90;3.10;;;7.30;99.90;;;;;;5094295;28;20414;-62
2023/01/30 10:38:35;;;;;;;11.50;2.80;;;7.20;99.90;;;;;;5094581;28;20428;-62
2023/01/30 10:41:10;;;;;;;14.55;3.10;;;7.30;99.90;;;;;;5094460;28;20869;-64
2023/01/30 10:43:42;;;;;;;10.70;2.42;;;7.30;99.90;;;;;;5096800;28;20420;-62
2023/01/30 10:46:21;;;;;;;9.13;2.88;;;7.30;99.90;;;;;;5094873;28;20409;-61
2023/01/30 10:48:54;;;;;;;9.88;2.90;;;7.30;99.80;;;;;;5094285;28;20416;-61
2023/01/30 10:51:30;;;;;;;12.15;3.00;;;7.40;99.80;;;;;;5095511;28;20881;-62
2023/01/30 10:54:02;;;;;;;11.00;2.50;;;7.40;99.90;;;;;;5097641;28;20414;-62
2023/01/30 10:56:37;;;;;;;13.60;2.95;;;7.40;99.40;;;;;;5097966;28;20928;-62
2023/01/30 10:59:15;;;;;;;12.02;2.90;;;7.40;99.20;;;;;;5096529;28;20409;-62
2023/01/30 11:01:47;;;;;;;8.17;2.73;;;7.40;99.10;;;;;;5096932;28;20406;-61
2023/01/30 11:04:22;;;;;;;8.63;2.80;;;7.50;98.70;;;;;;5096781;28;20770;-62
2023/01/30 11:06:49;;;;;;;11.77;3.67;;;7.60;98.00;;;;;;5097129;28;20410;-62
2023/01/30 11:09:17;;;;;;;15.25;3.10;;;7.50;98.60;;;;;;5097236;28;20421;-63
2023/01/30 11:11:49;;;;;;;15.50;3.40;;;7.40;99.90;;;;;;5097164;28;20436;-62
2023/01/30 11:14:16;;;;;;;11.13;2.88;;;7.20;99.90;;;;;;5096172;28;20417;-62
2023/01/30 11:16:46;;;;;;;10.07;2.95;;;7.00;99.90;;;;;;5096842;28;20410;-63
2023/01/30 11:19:14;;;;;;;14.02;3.40;;;6.90;99.90;;;;;;5095897;28;20420;-61
2023/01/30 11:21:42;;;;;;;9.27;3.08;;;6.80;99.90;;;;;;5097097;28;20410;-61
2023/01/30 11:24:16;;;;;;;9.10;2.97;;;6.70;99.90;;;;;;5094827;28;20424;-62
2023/01/30 11:26:45;;;;;;;14.23;3.55;;;6.60;99.90;;;;;;5095353;28;20954;-62
2023/01/30 11:29:23;;;;;;;13.55;3.10;;;6.50;99.90;;;;;;5095182;28;20413;-62
2023/01/30 11:31:50;;;;;;;9.55;3.47;;;6.30;99.90;;;;;;5094028;28;20491;-62
2023/01/30 11:34:19;;;;;;;17.00;3.50;;;6.10;99.90;;;;;;5093632;28;20414;-62
2023/01/30 11:36:46;;;;;;;16.73;3.20;;;5.90;99.90;;;;;;5094064;28;20416;-62
2023/01/30 11:39:22;;;;;;;15.33;3.50;;;5.90;99.90;;;;;;5093194;28;20834;-63
2023/01/30 11:42:02;;;;;;;9.00;2.90;;;5.80;99.90;;;;;;5093566;28;20402;-62
2023/01/30 11:44:32;;;;;;;12.30;2.80;;;6.00;99.90;;;;;;5092624;28;20453;-62
2023/01/30 11:47:00;;;;;;;8.40;2.30;;;6.10;99.90;;;;;;5091948;28;20452;-63
2023/01/30 11:49:33;;;;;;;10.32;3.53;;;6.20;99.90;;;;;;5091844;28;20430;-62
2023/01/30 11:52:01;;;;;;;13.53;2.70;;;6.30;99.90;;;;;;5093652;28;20425;-61
2023/01/30 11:54:33;;;;;;;13.70;3.10;;;6.40;99.90;;;;;;5093230;28;20410;-62
2023/01/30 11:57:04;;;;;;;12.75;2.90;;;6.50;99.90;;;;;;5093526;28;20409;-62
2023/01/30 11:59:35;;;;;;;7.18;2.30;;;6.50;99.90;;;;;;5093684;28;20782;-63
2023/01/30 12:02:05;;;;;;;6.75;1.95;;;6.50;99.90;;;;;;5093232;28;20409;-62
2023/01/30 12:04:32;;;;;;;9.43;3.10;;;6.40;99.90;;;;;;5093839;28;20414;-62
2023/01/30 12:07:08;;;;;;;13.03;3.67;;;6.20;99.90;;;;;;5092313;28;20418;-62
2023/01/30 12:09:37;;;;;;;11.93;2.70;;;6.10;99.90;;;;;;5091935;28;20418;-63
2023/01/30 12:12:27;;;;;;;14.68;3.47;;;6.00;99.90;;;;;;5091891;28;20421;-62
2023/01/30 12:15:02;;;;;;;10.10;3.10;;;5.90;99.90;;;;;;5092456;28;20419;-62
2023/01/30 12:17:36;;;;;;;9.25;2.85;;;5.70;99.90;;;;;;5092618;28;20769;-64
2023/01/30 12:20:12;;;;;;;9.55;2.53;;;5.50;99.90;;;;;;5092223;28;20421;-63
2023/01/30 12:22:46;;;;;;;8.68;3.10;;;5.20;99.90;;;;;;5090994;28;20433;-62
2023/01/30 12:25:18;;;;;;;12.95;3.50;;;5.10;99.90;;;;;;5092911;28;20417;-64
2023/01/30 12:27:56;;;;;;;13.07;3.10;;;4.90;99.90;;;;;;5092953;28;20448;-64
2023/01/30 12:30:33;;;;;;;12.57;3.10;;;4.90;99.90;;;;;;5096071;28;20414;-65
2023/01/30 12:33:02;;;;;;;15.80;3.70;;;4.80;99.90;;;;;;5098753;28;20607;-63
2023/01/30 12:35:41;;;;;;;11.82;2.88;;;4.80;99.90;;;;;;5102068;28;20416;-65
2023/01/30 12:38:18;;;;;;;15.10;3.63;;;4.80;99.90;;;;;;5099906;28;20496;-64
2023/01/30 12:40:59;;;;;;;11.07;2.92;;;4.80;99.90;;;;;;5100503;28;20523;-64
2023/01/30 12:43:41;;;;;;;12.98;3.15;;;4.80;99.90;;;;;;5099966;28;20519;-64
2023/01/30 12:46:20;;;;;;;15.32;3.55;;;4.80;99.90;;;;;;5100492;28;20547;-64
2023/01/30 12:49:02;;;;;;;8.02;2.50;;;4.80;99.90;;;;;;5100543;28;20515;-63
2023/01/30 12:51:50;;;;;;;9.90;2.22;;;4.80;99.90;;;;;;5097715;28;20414;-62
2023/01/30 12:54:30;;;;;;;11.70;2.70;;;4.70;99.90;;;;;;5100891;28;20460;-63
2023/01/30 12:57:12;;;;;;;9.85;2.08;;;4.60;99.90;;;;;;5100088;28;20407;-64
2023/01/30 12:59:49;;;;;;;5.40;1.63;;;4.60;99.90;;;;;;5098014;28;20481;-63
2023/01/30 13:02:34;;;;;;;6.95;1.70;;;4.60;99.90;;;;;;5095771;28;20410;-64
2023/01/30 13:05:15;;;;;;;4.25;1.23;;;4.60;99.90;;;;;;5096513;28;20471;-65
2023/01/30 13:07:49;;;;;;;5.75;1.55;;;4.60;99.90;;;;;;5099189;28;20418;-67
2023/01/30 13:10:21;;;;;;;6.00;1.60;;;4.70;99.90;;;;;;5104443;28;20430;-66
2023/01/30 13:12:55;;;;;;;7.25;1.75;;;4.80;99.90;;;;;;5104207;28;20951;-66